DLH2A EDDF-EDDN
Flight info
| Callsign | DLH2A |
|---|---|
| Flight time | 0h 18m |
| Altitude | 23000 |
| Route | CINDY8S/18 CINDY Z74 HAREM T104 ELMOX DCT LETKU LETKU1V |
| Aircraft | A320/M-SDE3FGHIRWY/LB1 |
Departure
| Time | 2026-05-03 22:05 |
|---|---|
| Airport | Frankfurt Main Airport (EDDF) |
Arrival
| Time | 2026-05-03 22:23 |
|---|---|
| Airport | Nuremberg Airport (EDDN) |
| Time | Latitude | Longitude | Altitude | Speed | Heading |
|---|---|---|---|---|---|
| 2026-05-03 21:50 | 50.04635 | 8.56670 | 358 ft | 0 kts | 114° |
| 2026-05-03 21:57 | 50.04642 | 8.56645 | 359 ft | 4 kts | 114° |
| 2026-05-03 21:57 | 50.04653 | 8.56607 | 363 ft | 4 kts | 115° |
| 2026-05-03 21:57 | 50.04664 | 8.56572 | 362 ft | 4 kts | 125° |
| 2026-05-03 21:57 | 50.04682 | 8.56547 | 361 ft | 4 kts | 174° |
| 2026-05-03 21:58 | 50.04705 | 8.56557 | 358 ft | 4 kts | 220° |
| 2026-05-03 21:58 | 50.04721 | 8.56584 | 358 ft | 1 kts | 236° |
| 2026-05-03 21:58 | 50.04735 | 8.56614 | 357 ft | 4 kts | 230° |
| 2026-05-03 21:58 | 50.04753 | 8.56643 | 365 ft | 4 kts | 221° |
| 2026-05-03 21:59 | 50.04775 | 8.56668 | 362 ft | 4 kts | 207° |
| 2026-05-03 21:59 | 50.04780 | 8.56672 | 361 ft | 0 kts | 205° |
| 2026-05-03 21:59 | 50.04775 | 8.56669 | 362 ft | 6 kts | 205° |
| 2026-05-03 22:00 | 50.04700 | 8.56548 | 360 ft | 21 kts | 234° |
| 2026-05-03 22:00 | 50.04641 | 8.56329 | 362 ft | 23 kts | 247° |
| 2026-05-03 22:00 | 50.04585 | 8.56090 | 362 ft | 24 kts | 249° |
| 2026-05-03 22:00 | 50.04475 | 8.55940 | 363 ft | 21 kts | 202° |
| 2026-05-03 22:01 | 50.04328 | 8.55937 | 362 ft | 23 kts | 162° |
| 2026-05-03 22:01 | 50.04221 | 8.55871 | 361 ft | 19 kts | 250° |
| 2026-05-03 22:01 | 50.04171 | 8.55655 | 352 ft | 24 kts | 249° |
| 2026-05-03 22:01 | 50.04106 | 8.55381 | 359 ft | 28 kts | 250° |
| 2026-05-03 22:02 | 50.04038 | 8.55098 | 360 ft | 29 kts | 250° |
| 2026-05-03 22:02 | 50.03967 | 8.54797 | 353 ft | 31 kts | 249° |
| 2026-05-03 22:02 | 50.03892 | 8.54486 | 356 ft | 30 kts | 250° |
| 2026-05-03 22:02 | 50.03795 | 8.54205 | 347 ft | 28 kts | 249° |
| 2026-05-03 22:03 | 50.03728 | 8.53918 | 349 ft | 29 kts | 249° |
| 2026-05-03 22:03 | 50.03656 | 8.53624 | 345 ft | 30 kts | 249° |
| 2026-05-03 22:03 | 50.03583 | 8.53328 | 336 ft | 28 kts | 250° |
| 2026-05-03 22:03 | 50.03513 | 8.53039 | 335 ft | 26 kts | 250° |
| 2026-05-03 22:04 | 50.03449 | 8.52792 | 336 ft | 25 kts | 247° |
| 2026-05-03 22:04 | 50.03377 | 8.52594 | 333 ft | 13 kts | 196° |
| 2026-05-03 22:04 | 50.03269 | 8.52593 | 334 ft | 25 kts | 180° |
| 2026-05-03 22:04 | 50.02870 | 8.52597 | 333 ft | 92 kts | 180° |
| 2026-05-03 22:05 | 50.02025 | 8.52606 | 335 ft | 149 kts | 179° |
| 2026-05-03 22:05 | 50.00974 | 8.52617 | 899 ft | 151 kts | 183° |
| 2026-05-03 22:05 | 49.99902 | 8.52610 | 1562 ft | 155 kts | 183° |
| 2026-05-03 22:05 | 49.98762 | 8.52613 | 2051 ft | 175 kts | 184° |
| 2026-05-03 22:06 | 49.97483 | 8.52737 | 2476 ft | 201 kts | 168° |
| 2026-05-03 22:06 | 49.96210 | 8.53941 | 2909 ft | 235 kts | 133° |
| 2026-05-03 22:06 | 49.95290 | 8.56221 | 3385 ft | 262 kts | 122° |
| 2026-05-03 22:06 | 49.94376 | 8.58779 | 3882 ft | 277 kts | 122° |
| 2026-05-03 22:07 | 49.93449 | 8.61420 | 3988 ft | 278 kts | 121° |
| 2026-05-03 22:07 | 49.92525 | 8.64057 | 4008 ft | 279 kts | 122° |
| 2026-05-03 22:07 | 49.91594 | 8.66692 | 4027 ft | 278 kts | 122° |
| 2026-05-03 22:07 | 49.90656 | 8.69318 | 4034 ft | 278 kts | 122° |
| 2026-05-03 22:08 | 49.89707 | 8.71958 | 4400 ft | 282 kts | 122° |
| 2026-05-03 22:08 | 49.88757 | 8.74605 | 5507 ft | 281 kts | 123° |
| 2026-05-03 22:08 | 49.87813 | 8.77224 | 6518 ft | 283 kts | 125° |
| 2026-05-03 22:08 | 49.86848 | 8.79892 | 7477 ft | 286 kts | 125° |
| 2026-05-03 22:09 | 49.85867 | 8.82597 | 8395 ft | 289 kts | 125° |
| 2026-05-03 22:09 | 49.84879 | 8.85322 | 9347 ft | 291 kts | 126° |
| 2026-05-03 22:09 | 49.83879 | 8.88073 | 10204 ft | 298 kts | 125° |
| 2026-05-03 22:10 | 49.81954 | 8.94350 | 10820 ft | 349 kts | 114° |
| 2026-05-03 22:10 | 49.81162 | 8.97973 | 11020 ft | 359 kts | 112° |
| 2026-05-03 22:10 | 49.80382 | 9.01683 | 11725 ft | 364 kts | 111° |
| 2026-05-03 22:10 | 49.79616 | 9.05385 | 12530 ft | 367 kts | 111° |
| 2026-05-03 22:11 | 49.78830 | 9.09178 | 13285 ft | 372 kts | 111° |
| 2026-05-03 22:11 | 49.78028 | 9.13013 | 13988 ft | 377 kts | 111° |
| 2026-05-03 22:11 | 49.77206 | 9.16891 | 14653 ft | 381 kts | 111° |
| 2026-05-03 22:11 | 49.76373 | 9.20799 | 15349 ft | 384 kts | 111° |
| 2026-05-03 22:12 | 49.75531 | 9.24734 | 16030 ft | 388 kts | 111° |
| 2026-05-03 22:12 | 49.74677 | 9.28710 | 16688 ft | 391 kts | 111° |
| 2026-05-03 22:12 | 49.73814 | 9.32709 | 16961 ft | 393 kts | 111° |
| 2026-05-03 22:12 | 49.72937 | 9.36769 | 17036 ft | 406 kts | 111° |
| 2026-05-03 22:13 | 49.72041 | 9.40909 | 17031 ft | 416 kts | 111° |
| 2026-05-03 22:13 | 49.71120 | 9.45163 | 17033 ft | 418 kts | 111° |
| 2026-05-03 22:13 | 49.70200 | 9.49423 | 17032 ft | 419 kts | 111° |
| 2026-05-03 22:13 | 49.69279 | 9.53689 | 17032 ft | 419 kts | 111° |
| 2026-05-03 22:14 | 49.68356 | 9.57961 | 17031 ft | 419 kts | 111° |
| 2026-05-03 22:14 | 49.65272 | 9.72113 | 17046 ft | 419 kts | 111° |
| 2026-05-03 22:14 | 49.61593 | 9.88643 | 17105 ft | 389 kts | 112° |
| 2026-05-03 22:14 | 49.58004 | 10.04563 | 17056 ft | 396 kts | 112° |
| 2026-05-03 22:15 | 49.54412 | 10.20402 | 16961 ft | 392 kts | 112° |
| 2026-05-03 22:15 | 49.50849 | 10.36072 | 17054 ft | 389 kts | 112° |
| 2026-05-03 22:15 | 49.47177 | 10.51822 | 17072 ft | 393 kts | 112° |
| 2026-05-03 22:15 | 49.43494 | 10.67535 | 16979 ft | 391 kts | 112° |
| 2026-05-03 22:16 | 49.39808 | 10.83184 | 17083 ft | 388 kts | 112° |
| 2026-05-03 22:16 | 49.36062 | 10.98977 | 16028 ft | 390 kts | 112° |
| 2026-05-03 22:16 | 49.32521 | 11.14245 | 13500 ft | 368 kts | 112° |
| 2026-05-03 22:16 | 49.29304 | 11.28817 | 9729 ft | 342 kts | 112° |
| 2026-05-03 22:17 | 49.28349 | 11.37787 | 8824 ft | 299 kts | 77° |
| 2026-05-03 22:17 | 49.34206 | 11.44820 | 7088 ft | 257 kts | 359° |
| 2026-05-03 22:17 | 49.38456 | 11.44096 | 6307 ft | 233 kts | 353° |
| 2026-05-03 22:17 | 49.40782 | 11.43686 | 5704 ft | 226 kts | 351° |
| 2026-05-03 22:18 | 49.43828 | 11.43072 | 4926 ft | 214 kts | 342° |
| 2026-05-03 22:18 | 49.45447 | 11.41766 | 4440 ft | 206 kts | 318° |
| 2026-05-03 22:18 | 49.46354 | 11.40100 | 4059 ft | 202 kts | 299° |
| 2026-05-03 22:18 | 49.46834 | 11.38099 | 4004 ft | 202 kts | 283° |
| 2026-05-03 22:19 | 49.47056 | 11.35942 | 3992 ft | 201 kts | 281° |
| 2026-05-03 22:19 | 49.47263 | 11.33891 | 3995 ft | 190 kts | 282° |
| 2026-05-03 22:19 | 49.47452 | 11.32005 | 3893 ft | 172 kts | 282° |
| 2026-05-03 22:19 | 49.47618 | 11.30309 | 3745 ft | 150 kts | 283° |
| 2026-05-03 22:20 | 49.47796 | 11.28570 | 3498 ft | 138 kts | 283° |
| 2026-05-03 22:20 | 49.47943 | 11.27128 | 3321 ft | 135 kts | 284° |
| 2026-05-03 22:20 | 49.48086 | 11.25716 | 3146 ft | 133 kts | 283° |
| 2026-05-03 22:20 | 49.48232 | 11.24272 | 2962 ft | 139 kts | 280° |
| 2026-05-03 22:21 | 49.48380 | 11.22783 | 2795 ft | 142 kts | 281° |
| 2026-05-03 22:21 | 49.48520 | 11.21276 | 2597 ft | 142 kts | 280° |
| 2026-05-03 22:21 | 49.48647 | 11.19766 | 2395 ft | 142 kts | 280° |
| 2026-05-03 22:21 | 49.48785 | 11.18272 | 2192 ft | 140 kts | 282° |
| 2026-05-03 22:22 | 49.48948 | 11.16808 | 2040 ft | 141 kts | 283° |
| 2026-05-03 22:22 | 49.49123 | 11.15305 | 1829 ft | 143 kts | 282° |
| 2026-05-03 22:22 | 49.49285 | 11.13793 | 1684 ft | 144 kts | 281° |
| 2026-05-03 22:22 | 49.49428 | 11.12275 | 1455 ft | 143 kts | 279° |
| 2026-05-03 22:23 | 49.49585 | 11.10756 | 1264 ft | 143 kts | 280° |
| 2026-05-03 22:23 | 49.49728 | 11.09249 | 1054 ft | 138 kts | 275° |
| 2026-05-03 22:23 | 49.49846 | 11.08009 | 1032 ft | 83 kts | 279° |
| 2026-05-03 22:23 | 49.49847 | 11.07650 | 1031 ft | 15 kts | 197° |
| 2026-05-03 22:24 | 49.49784 | 11.07682 | 1032 ft | 2 kts | 147° |
| 2026-05-03 22:24 | 49.49784 | 11.07683 | 1032 ft | 1 kts | 147° |